This is the latest recevied weather packets stored in our database for station/object WA4IKQ. If no packets are shown the sender has not sent any weather packets the latest 10 day(s).
| Time | Temp. | Humidity | Pressure | Rain* | Wind** | Luminosity | Snow |
|---|---|---|---|---|---|---|---|
| 1777784058 | 19.44° C | 91% | 1015 hPa | 0 mm | 1.34 m/s, 328° | - | - |
| 1777784057 | 18.89° C | 91% | 1015.1 hPa | 0 mm | 2.24 m/s, 333° | - | - |
| 1777783756 | 19.44° C | 91% | 1015 hPa | 0 mm | 1.34 m/s, 328° | - | - |
| 1777783620 | 19.44° C | 91% | 1014.9 hPa | 0 mm | 1.34 m/s, 277° | - | - |
| 1777783454 | 19.44° C | 91% | 1014.9 hPa | 0 mm | 1.34 m/s, 277° | - | - |
| 1777783396 | 19.44° C | 91% | 1014.6 hPa | 0 mm | 2.24 m/s, 328° | - | - |
| 1777783154 | 19.44° C | 91% | 1014.6 hPa | 0 mm | 2.24 m/s, 328° | - | - |
| 1777783000 | 20° C | 91% | 1014.4 hPa | 0 mm | 2.68 m/s, 330° | - | - |
| 1777782856 | 20° C | 91% | 1014.4 hPa | 0 mm | 2.68 m/s, 330° | - | - |
| 1777782792 | 20° C | 90% | 1014.6 hPa | 0 mm | 2.68 m/s, 333° | - | - |
| 1777782563 | 20° C | 90% | 1014.6 hPa | 0 mm | 2.68 m/s, 333° | - | - |
| 1777782200 | 20.56° C | 90% | 1014.2 hPa | 0 mm | 2.68 m/s, 339° | - | - |
| 1777781964 | 20.56° C | 90% | 1014.2 hPa | 0 mm | 2.68 m/s, 339° | - | - |
| 1777781892 | 20.56° C | 90% | 1014.2 hPa | 0 mm | 3.13 m/s, 300° | - | - |
| 1777781654 | 20.56° C | 90% | 1014.2 hPa | 0 mm | 3.13 m/s, 300° | - | - |
| 1777780987 | 21.11° C | 88% | 1013.8 hPa | 0 mm | 0.89 m/s, 32° | - | - |
| 1777780752 | 21.11° C | 88% | 1013.8 hPa | 0 mm | 0.89 m/s, 32° | - | - |
| 1777780385 | 21.11° C | 87% | 1013.5 hPa | 0 mm | 0.89 m/s, 302° | - | - |
| 1777780152 | 21.11° C | 87% | 1013.5 hPa | 0 mm | 0.89 m/s, 302° | - | - |
| 1777780099 | 21.67° C | 87% | 1013.4 hPa | 0 mm | 1.79 m/s, 37° | - | - |
| 1777779853 | 21.67° C | 87% | 1013.4 hPa | 0 mm | 1.79 m/s, 37° | - | - |
| 1777779198 | 22.22° C | 87% | 1013 hPa | 0 mm | 4.47 m/s, 314° | - | - |
| 1777778950 | 22.22° C | 87% | 1013 hPa | 0 mm | 4.47 m/s, 314° | - | - |
| 1777778719 | 22.78° C | 88% | 1012.7 hPa | 0 mm | 0.45 m/s, 239° | - | - |
| 1777778351 | 22.78° C | 88% | 1012.7 hPa | 0 mm | 0.45 m/s, 239° | - | - |
* Rain latest hour (hover to see other rain measurements)
** Current wind speed in m/s (hover to see current wind gust speed)